Time;durP1;ratioP1;P1;durP2;ratioP2;P2;SDS_P1;SDS_P2;PMS_P1;PMS_P2;Temp;Humidity;BMP_temperature;BMP_pressure;BME280_temperature;BME280_humidity;BME280_pressure;Samples;Min_cycle;Max_cycle;Signal;HPM_P1;HPM_P2
2022/09/20 00:01:11;;;;;;;1.73;0.90;;;;;;;19.23;50.78;102144.00;5052777;28;20041;-56
2022/09/20 00:03:38;;;;;;;1.77;1.10;;;;;;;19.24;51.01;102150.25;5046189;28;20029;-55
2022/09/20 00:06:06;;;;;;;1.02;0.63;;;;;;;19.22;50.77;102150.41;5047781;28;20037;-57
2022/09/20 00:08:31;;;;;;;3.30;1.13;;;;;;;19.22;50.82;102145.00;5044784;28;20051;-58
2022/09/20 00:11:02;;;;;;;2.42;0.98;;;;;;;19.21;51.11;102151.41;5030515;28;20054;-56
2022/09/20 00:13:28;;;;;;;1.40;0.68;;;;;;;19.20;51.18;102155.09;5031778;28;20021;-57
2022/09/20 00:15:53;;;;;;;1.65;0.70;;;;;;;19.18;50.75;102145.44;5032047;28;20068;-58
2022/09/20 00:18:19;;;;;;;1.50;0.70;;;;;;;19.19;50.81;102144.44;5038349;28;20018;-56
2022/09/20 00:20:45;;;;;;;0.80;0.65;;;;;;;19.19;51.03;102147.13;5035061;28;20056;-56
2022/09/20 00:23:10;;;;;;;1.52;0.80;;;;;;;19.18;50.79;102148.13;5037175;28;20084;-57
2022/09/20 00:25:36;;;;;;;1.70;0.85;;;;;;;19.17;50.96;102143.72;5043752;28;20071;-59
2022/09/20 00:28:01;;;;;;;2.95;1.00;;;;;;;19.15;50.84;102137.63;5030251;28;20109;-56
2022/09/20 00:30:26;;;;;;;1.10;0.90;;;;;;;19.16;50.62;102136.66;5037812;28;20049;-58
2022/09/20 00:32:52;;;;;;;2.30;0.80;;;;;;;19.15;50.90;102146.56;5025407;28;20036;-57
2022/09/20 00:35:17;;;;;;;0.80;0.70;;;;;;;19.15;50.71;102148.41;5040405;28;20041;-56
2022/09/20 00:37:42;;;;;;;1.52;0.60;;;;;;;19.13;50.89;102143.16;5016024;28;20080;-58
2022/09/20 00:40:12;;;;;;;2.08;0.80;;;;;;;19.13;51.01;102156.63;5037886;28;20057;-56
2022/09/20 00:42:37;;;;;;;2.97;0.73;;;;;;;19.13;51.08;102147.69;5033116;28;20030;-58
2022/09/20 00:45:11;;;;;;;0.82;0.68;;;;;;;19.12;50.89;102149.56;5044177;28;20113;-56
2022/09/20 00:47:41;;;;;;;2.53;1.10;;;;;;;19.11;51.10;102145.13;5012129;28;20467;-56
2022/09/20 00:50:16;;;;;;;2.90;1.02;;;;;;;19.11;51.09;102146.97;5036756;28;20021;-57
2022/09/20 00:52:43;;;;;;;1.90;0.98;;;;;;;19.10;50.73;102147.97;5028075;28;20022;-58
2022/09/20 00:55:10;;;;;;;1.50;0.70;;;;;;;19.02;50.99;102140.56;5044066;28;20104;-56
2022/09/20 00:57:37;;;;;;;1.08;0.85;;;;;;;19.07;51.02;102146.41;5012098;28;20022;-57
2022/09/20 01:00:06;;;;;;;1.20;0.70;;;;;;;19.08;50.73;102153.50;5018505;28;20026;-58
2022/09/20 01:02:31;;;;;;;1.55;0.70;;;;;;;19.01;50.82;102146.97;5036656;28;20025;-59
2022/09/20 01:04:57;;;;;;;1.80;1.05;;;;;;;19.06;50.82;102144.69;5026525;28;20036;-59
2022/09/20 01:07:23;;;;;;;1.60;0.90;;;;;;;19.06;50.78;102147.41;5042393;28;20024;-59
2022/09/20 01:09:49;;;;;;;2.22;1.05;;;;;;;19.05;50.96;102143.00;5043526;28;20033;-56
2022/09/20 01:12:20;;;;;;;2.33;0.82;;;;;;;19.05;50.74;102148.41;5043130;28;20052;-57
2022/09/20 01:14:46;;;;;;;0.80;0.57;;;;;;;19.03;50.72;102144.13;5012403;28;20052;-58
2022/09/20 01:17:12;;;;;;;1.65;0.73;;;;;;;18.95;50.88;102137.59;5025808;28;20036;-57
2022/09/20 01:20:04;;;;;;;1.65;0.80;;;;;;;19.02;50.90;102151.34;5029440;28;20021;-57
2022/09/20 01:22:48;;;;;;;1.08;0.75;;;;;;;19.02;50.69;102155.91;5036153;28;20021;-58
2022/09/20 01:25:17;;;;;;;1.10;0.70;;;;;;;19.02;50.65;102161.28;5038728;28;20037;-54
2022/09/20 01:27:46;;;;;;;;;;;;;;;19.01;50.71;102155.06;5050835;28;20386;-58
2022/09/20 01:30:17;;;;;;;1.42;1.17;;;;;;;18.99;51.04;102151.66;5038085;28;19914;-59
2022/09/20 01:32:51;;;;;;;2.95;0.90;;;;;;;18.98;50.56;102155.31;5034201;28;20057;-59
2022/09/20 01:35:18;;;;;;;1.45;0.73;;;;;;;18.95;50.77;102147.53;5011504;28;20053;-58
2022/09/20 01:38:09;;;;;;;1.25;0.80;;;;;;;18.97;51.08;102153.63;5032556;28;20033;-57
2022/09/20 01:40:39;;;;;;;1.17;1.08;;;;;;;18.93;50.70;102147.66;5019448;28;20061;-57
2022/09/20 01:43:27;;;;;;;0.90;0.70;;;;;;;18.95;50.87;102153.78;5043411;28;20044;-60
2022/09/20 01:45:53;;;;;;;1.02;0.70;;;;;;;18.86;50.73;102134.88;5021304;28;20456;-57
2022/09/20 01:48:32;;;;;;;1.13;0.75;;;;;;;18.94;50.57;102151.19;5033525;28;20034;-56
2022/09/20 01:51:23;;;;;;;1.85;0.70;;;;;;;18.93;50.64;102146.81;5022641;28;20040;-57
2022/09/20 01:54:01;;;;;;;2.15;0.90;;;;;;;18.93;50.97;102147.66;5055073;28;20037;-57
2022/09/20 01:56:44;;;;;;;1.83;0.95;;;;;;;18.92;50.68;102151.34;5036582;28;20018;-55
2022/09/20 01:59:12;;;;;;;1.23;0.73;;;;;;;18.93;50.82;102152.19;5041682;28;20040;-56
2022/09/20 02:01:50;;;;;;;1.45;0.70;;;;;;;18.91;50.89;102146.09;5032185;28;20026;-58
2022/09/20 02:04:39;;;;;;;1.23;0.70;;;;;;;18.90;50.85;102144.38;5040816;28;20470;-57
2022/09/20 02:07:38;;;;;;;0.95;0.70;;;;;;;18.90;50.87;102150.66;5033244;28;20017;-56
2022/09/20 02:10:18;;;;;;;1.73;0.60;;;;;;;18.89;50.68;102148.06;5023051;28;20092;-56
2022/09/20 02:13:00;;;;;;;0.70;0.70;;;;;;;18.88;50.65;102144.53;5026635;28;20029;-54
2022/09/20 02:15:50;;;;;;;1.67;0.70;;;;;;;18.87;50.84;102139.28;5024748;28;20033;-57
2022/09/20 02:18:34;;;;;;;1.85;0.80;;;;;;;18.86;50.62;102143.84;5012304;28;20122;-58
2022/09/20 02:21:04;;;;;;;1.42;0.70;;;;;;;18.86;50.78;102143.84;5041992;28;20454;-56
2022/09/20 02:24:12;;;;;;;1.00;0.90;;;;;;;18.84;50.75;102136.88;5016769;28;20041;-56
2022/09/20 02:26:54;;;;;;;0.65;0.60;;;;;;;18.84;50.50;102148.50;5018676;28;20041;-56
2022/09/20 02:29:38;;;;;;;1.67;0.77;;;;;;;18.84;50.67;102144.94;5018830;28;20040;-55
2022/09/20 02:32:37;;;;;;;1.98;0.82;;;;;;;18.84;50.67;102151.19;5026173;28;20025;-57
2022/09/20 02:35:27;;;;;;;1.40;0.95;;;;;;;18.83;50.57;102143.25;5023957;28;20017;-56
2022/09/20 02:38:11;;;;;;;1.08;0.70;;;;;;;18.81;50.68;102146.06;5028343;28;20164;-57
2022/09/20 02:40:58;;;;;;;1.30;0.70;;;;;;;18.81;50.63;102146.06;5032984;28;20130;-56
2022/09/20 02:43:32;;;;;;;1.05;0.70;;;;;;;18.80;50.62;102144.38;5036440;28;20071;-55
2022/09/20 02:46:09;;;;;;;1.80;1.00;;;;;;;18.80;50.85;102144.38;5015578;28;20022;-57
2022/09/20 02:48:46;;;;;;;1.50;0.90;;;;;;;18.70;50.77;102130.03;5010287;28;20047;-57
2022/09/20 02:51:27;;;;;;;0.90;0.70;;;;;;;18.75;50.76;102137.69;5023999;28;20043;-58
2022/09/20 02:54:17;;;;;;;1.38;0.77;;;;;;;18.79;50.48;102147.22;5024376;28;20037;-58
2022/09/20 02:56:51;;;;;;;1.33;0.70;;;;;;;18.77;50.53;102147.31;5010210;28;20108;-55
2022/09/20 02:59:51;;;;;;;1.00;0.70;;;;;;;18.78;50.45;102148.22;5023246;28;20032;-56
2022/09/20 03:02:44;;;;;;;2.85;0.80;;;;;;;18.77;50.67;102154.56;5023535;28;20383;-58
2022/09/20 03:05:38;;;;;;;1.02;0.73;;;;;;;18.73;50.84;102145.91;5018278;28;20043;-58
2022/09/20 03:08:36;;;;;;;1.35;0.80;;;;;;;18.75;50.68;102159.25;4970385;28;20031;-55
2022/09/20 03:11:29;;;;;;;1.08;0.65;;;;;;;18.73;50.41;102148.59;4939627;29;20050;-57
2022/09/20 03:14:13;;;;;;;1.40;0.80;;;;;;;18.73;50.62;102143.19;4969045;28;20043;-58
2022/09/20 03:16:55;;;;;;;2.10;0.75;;;;;;;18.72;50.89;102136.97;4964996;28;20096;-59
2022/09/20 03:19:32;;;;;;;0.98;0.80;;;;;;;18.72;50.96;102136.13;4969173;28;20073;-59
2022/09/20 03:22:16;;;;;;;0.85;0.60;;;;;;;18.72;50.58;102144.19;4966125;28;20575;-58
2022/09/20 03:24:50;;;;;;;1.88;0.90;;;;;;;18.70;50.77;102133.56;4949064;29;20031;-58
2022/09/20 03:27:23;;;;;;;1.10;0.70;;;;;;;18.67;50.59;102124.88;4964423;29;20031;-58
2022/09/20 03:30:26;;;;;;;1.08;0.77;;;;;;;18.69;50.70;102134.56;4964725;29;20420;-57
2022/09/20 03:33:15;;;;;;;1.20;0.80;;;;;;;18.68;50.51;102138.19;4964404;29;20083;-58
2022/09/20 03:35:49;;;;;;;1.17;0.75;;;;;;;18.68;50.55;102142.72;4964257;29;20505;-59
2022/09/20 03:38:38;;;;;;;1.02;0.90;;;;;;;18.68;50.57;102145.44;4951422;29;20031;-59
2022/09/20 03:41:22;;;;;;;1.17;0.68;;;;;;;18.67;50.74;102155.34;4949662;28;20051;-59
2022/09/20 03:43:54;;;;;;;1.70;0.88;;;;;;;18.66;50.48;102150.97;4964498;29;20655;-59
2022/09/20 03:46:29;;;;;;;2.50;1.02;;;;;;;18.65;50.74;102160.03;5039363;28;20033;-59
2022/09/20 03:49:00;;;;;;;1.20;0.95;;;;;;;18.64;50.31;102150.22;5017610;28;20042;-59
2022/09/20 03:51:46;;;;;;;1.35;0.82;;;;;;;18.64;50.62;102158.31;5031193;28;20037;-58
2022/09/20 03:54:37;;;;;;;1.50;0.70;;;;;;;18.64;50.54;102149.38;5027571;28;20591;-59
2022/09/20 03:57:26;;;;;;;2.42;0.90;;;;;;;18.62;50.45;102154.91;5030800;28;20029;-59
2022/09/20 03:59:57;;;;;;;1.27;0.70;;;;;;;18.63;50.77;102158.47;5041268;28;20162;-59
2022/09/20 04:03:11;;;;;;;1.35;0.93;;;;;;;18.62;50.84;102152.22;5044878;28;20025;-58
2022/09/20 04:06:15;;;;;;;1.30;0.80;;;;;;;18.60;50.60;102151.50;4950544;28;20034;-58
2022/09/20 04:09:14;;;;;;;1.33;0.88;;;;;;;18.60;50.76;102148.81;4930075;29;20072;-59
2022/09/20 04:11:51;;;;;;;2.50;1.10;;;;;;;18.60;50.71;102161.41;4920771;29;20039;-57
2022/09/20 04:14:33;;;;;;;1.52;0.90;;;;;;;18.59;50.34;102154.34;4944698;29;20119;-58
2022/09/20 04:17:10;;;;;;;1.30;0.90;;;;;;;18.58;50.58;102150.78;4907402;29;20112;-59
2022/09/20 04:19:57;;;;;;;0.82;0.80;;;;;;;18.58;50.53;102158.03;4897213;29;20557;-57
2022/09/20 04:22:24;;;;;;;1.02;0.80;;;;;;;18.56;50.73;102160.00;4922832;29;20040;-55
2022/09/20 04:24:57;;;;;;;1.40;0.80;;;;;;;18.51;50.71;102155.00;4933413;29;20027;-55
2022/09/20 04:27:27;;;;;;;1.73;0.95;;;;;;;18.57;50.78;102167.09;4930075;29;20226;-57
2022/09/20 04:30:00;;;;;;;1.08;0.80;;;;;;;18.55;50.37;102159.13;4937200;29;20887;-55
2022/09/20 04:32:41;;;;;;;1.95;0.77;;;;;;;18.56;50.74;102154.59;4922714;29;20043;-56
2022/09/20 04:38:12;;;;;;;0.73;0.60;;;;;;;18.56;50.63;102160.00;4938305;29;20051;-56
2022/09/20 04:40:44;;;;;;;;;;;;;;;18.55;50.33;102166.38;4927419;29;20904;-58
2022/09/20 04:43:34;;;;;;;0.73;0.60;;;;;;;18.54;50.77;102156.59;5014802;28;19924;-56
2022/09/20 04:46:07;;;;;;;1.30;0.85;;;;;;;18.53;50.51;102171.91;5012752;28;20034;-58
2022/09/20 04:49:01;;;;;;;1.35;0.70;;;;;;;18.45;50.84;102153.72;5019326;28;20024;-56
2022/09/20 04:51:45;;;;;;;1.15;0.90;;;;;;;18.40;50.68;102145.19;5038124;28;20092;-59
2022/09/20 04:54:33;;;;;;;2.33;0.80;;;;;;;18.51;50.51;102167.63;5035610;28;20029;-58
2022/09/20 04:57:18;;;;;;;1.23;0.77;;;;;;;18.52;50.35;102163.94;5026280;28;20494;-57
2022/09/20 05:00:04;;;;;;;1.45;0.90;;;;;;;18.51;50.76;102167.63;5022276;28;20052;-58
2022/09/20 05:03:08;;;;;;;1.42;0.98;;;;;;;18.52;50.56;102180.09;5029914;28;20112;-57
2022/09/20 05:06:03;;;;;;;3.63;0.82;;;;;;;18.49;50.75;102179.41;5031631;28;20100;-61
2022/09/20 05:08:50;;;;;;;1.65;0.77;;;;;;;18.49;50.96;102175.84;5039317;28;20033;-59
2022/09/20 05:11:37;;;;;;;1.08;0.80;;;;;;;18.01;51.13;102094.84;5031314;28;20033;-58
2022/09/20 05:14:24;;;;;;;1.92;0.80;;;;;;;18.49;51.21;102179.41;5044522;28;20160;-59
2022/09/20 05:17:13;;;;;;;2.42;0.90;;;;;;;18.51;51.37;102189.19;5044588;28;20113;-58
2022/09/20 05:20:02;;;;;;;1.50;0.85;;;;;;;18.49;51.37;102187.47;5042107;28;20116;-60
2022/09/20 05:22:33;;;;;;;1.15;0.70;;;;;;;18.51;51.06;102191.88;5025880;28;20025;-58
2022/09/20 05:25:20;;;;;;;1.63;0.80;;;;;;;18.51;51.08;102190.03;5044423;28;20041;-58
2022/09/20 05:28:14;;;;;;;1.83;1.00;;;;;;;18.51;51.23;102184.63;5043124;28;20033;-59
2022/09/20 05:30:46;;;;;;;0.85;0.68;;;;;;;18.51;51.15;102181.94;5042490;28;20033;-59
2022/09/20 05:33:19;;;;;;;4.68;1.00;;;;;;;18.52;51.42;102193.56;5023525;28;20049;-58
2022/09/20 05:35:53;;;;;;;3.75;0.80;;;;;;;18.51;51.41;102190.03;5043398;28;20021;-59
2022/09/20 05:38:42;;;;;;;1.42;0.77;;;;;;;18.53;51.51;102189.91;5042285;28;20053;-58
2022/09/20 05:41:36;;;;;;;1.65;1.00;;;;;;;18.52;51.26;102191.75;5024595;28;20056;-57
2022/09/20 05:44:13;;;;;;;2.35;1.13;;;;;;;18.53;51.23;102196.16;5026261;28;20025;-59
2022/09/20 05:46:48;;;;;;;1.02;0.88;;;;;;;18.53;51.63;102193.44;5026234;28;20065;-58
2022/09/20 05:49:50;;;;;;;0.85;0.70;;;;;;;18.54;51.27;102192.47;5034640;28;20026;-59
2022/09/20 05:52:31;;;;;;;1.23;0.75;;;;;;;18.55;51.65;102196.84;5041910;28;20064;-59
2022/09/20 05:55:14;;;;;;;1.85;1.10;;;;;;;18.08;51.69;102123.78;5058039;28;20064;-58
2022/09/20 05:58:02;;;;;;;1.25;0.70;;;;;;;18.56;51.38;102200.38;5023194;28;20079;-58
2022/09/20 06:01:17;;;;;;;1.48;0.77;;;;;;;18.57;51.43;102202.13;5023381;28;20032;-58
2022/09/20 06:03:54;;;;;;;5.70;0.90;;;;;;;18.48;51.49;102190.31;5022946;28;20405;-59
2022/09/20 06:06:30;;;;;;;1.77;1.00;;;;;;;18.58;51.71;102207.34;5047239;28;20066;-58
2022/09/20 06:09:24;;;;;;;1.45;0.93;;;;;;;18.58;51.58;102201.97;5042288;28;20021;-59
2022/09/20 06:12:19;;;;;;;3.50;0.90;;;;;;;18.54;51.38;102203.22;5063375;28;20491;-60
2022/09/20 06:15:00;;;;;;;2.63;1.10;;;;;;;18.60;51.55;102216.16;5016601;28;20021;-59
2022/09/20 06:17:36;;;;;;;4.20;1.10;;;;;;;18.60;51.58;102218.00;5055190;28;20021;-59
2022/09/20 06:20:15;;;;;;;2.63;1.00;;;;;;;18.62;51.52;102224.97;5033171;28;20021;-59
2022/09/20 06:22:55;;;;;;;3.03;1.15;;;;;;;18.63;51.36;102231.19;5020295;28;20509;-59
2022/09/20 06:25:30;;;;;;;1.67;0.90;;;;;;;18.63;51.40;102231.19;5034739;28;20085;-59
2022/09/20 06:28:02;;;;;;;1.50;1.10;;;;;;;18.57;51.24;102221.81;5028758;28;20715;-57
2022/09/20 06:30:34;;;;;;;2.55;0.93;;;;;;;18.63;51.08;102234.75;5031759;28;20034;-59
2022/09/20 06:33:00;;;;;;;1.42;0.90;;;;;;;18.64;51.26;102230.19;5025333;28;20040;-61
2022/09/20 06:35:32;;;;;;;2.58;0.95;;;;;;;18.65;51.35;102242.72;5013963;28;20165;-59
2022/09/20 06:41:43;;;;;;;2.63;1.15;;;;;;;18.66;51.22;102242.56;4989738;28;20059;-61
2022/09/20 06:44:09;;;;;;;3.03;0.93;;;;;;;18.67;50.98;102232.63;4988681;28;20090;-60
2022/09/20 06:46:35;;;;;;;1.13;0.77;;;;;;;18.68;51.17;102237.88;4995355;28;20030;-60
2022/09/20 06:49:01;;;;;;;1.98;0.90;;;;;;;18.69;51.26;102239.63;4992221;28;20038;-59
2022/09/20 06:51:28;;;;;;;2.38;1.30;;;;;;;18.72;51.24;102244.72;4996560;28;20065;-60
2022/09/20 06:53:54;;;;;;;3.83;1.20;;;;;;;18.73;50.90;102243.78;5001121;28;20038;-60
2022/09/20 06:56:23;;;;;;;1.73;0.90;;;;;;;18.74;51.01;102255.41;4970686;28;20039;-60
2022/09/20 06:58:49;;;;;;;1.23;0.90;;;;;;;18.72;51.28;102254.66;4984628;28;20070;-58
2022/09/20 07:01:14;;;;;;;2.25;0.85;;;;;;;18.73;51.09;102253.66;4989391;28;20572;-59
2022/09/20 07:03:40;;;;;;;3.20;1.30;;;;;;;18.74;50.90;102255.41;4998908;28;20153;-60
2022/09/20 07:06:06;;;;;;;1.80;1.08;;;;;;;18.75;50.88;102261.63;5000330;28;20101;-58
2022/09/20 07:08:31;;;;;;;1.33;0.93;;;;;;;18.76;50.89;102263.34;5010909;28;20527;-59
2022/09/20 07:11:09;;;;;;;2.15;1.02;;;;;;;18.76;51.15;102257.94;4988975;28;20121;-58
2022/09/20 07:13:35;;;;;;;4.70;1.38;;;;;;;18.77;50.84;102263.19;4999596;28;20033;-57
2022/09/20 07:16:02;;;;;;;3.45;1.15;;;;;;;18.79;50.74;102263.06;5023752;28;20064;-58
2022/09/20 07:18:28;;;;;;;2.22;0.90;;;;;;;18.77;50.91;102262.34;5031162;28;20159;-58
2022/09/20 07:20:54;;;;;;;1.50;0.73;;;;;;;18.84;51.12;102263.50;5027008;28;20029;-58
2022/09/20 07:23:20;;;;;;;1.58;0.80;;;;;;;18.85;50.83;102276.00;5025451;28;20491;-58
2022/09/20 07:25:45;;;;;;;3.30;0.98;;;;;;;18.86;50.93;102264.22;5027029;28;20090;-59
2022/09/20 07:28:10;;;;;;;1.83;1.08;;;;;;;18.89;50.85;102261.25;5024892;28;20026;-58
2022/09/20 07:30:35;;;;;;;1.90;1.05;;;;;;;18.90;50.96;102266.53;5026507;28;20065;-58
2022/09/20 07:33:01;;;;;;;1.23;0.90;;;;;;;18.93;50.67;102273.47;5025767;28;20037;-60
2022/09/20 07:35:27;;;;;;;1.67;0.98;;;;;;;18.93;50.51;102262.69;5024864;28;20036;-58
2022/09/20 07:37:56;;;;;;;1.70;0.80;;;;;;;18.95;50.53;102266.97;5027213;28;20091;-60
2022/09/20 07:40:22;;;;;;;2.17;1.05;;;;;;;18.96;50.88;102265.97;5024804;28;20654;-58
2022/09/20 07:42:47;;;;;;;2.40;0.82;;;;;;;19.00;50.73;102260.31;5037748;28;20037;-58
2022/09/20 07:45:12;;;;;;;1.75;0.80;;;;;;;19.03;50.56;102258.22;5034391;28;20041;-57
2022/09/20 07:47:40;;;;;;;3.63;1.00;;;;;;;19.06;50.54;102259.75;5036275;28;20044;-57
2022/09/20 07:50:06;;;;;;;2.33;0.73;;;;;;;19.06;50.70;102255.22;5041828;28;20113;-59
2022/09/20 07:52:31;;;;;;;1.95;0.95;;;;;;;19.07;50.57;102269.56;5039961;28;20034;-56
2022/09/20 07:54:56;;;;;;;1.50;0.70;;;;;;;19.07;50.34;102272.25;5044281;28;20032;-59
2022/09/20 07:57:22;;;;;;;1.35;0.70;;;;;;;19.07;50.22;102269.56;5049809;28;20025;-59
2022/09/20 07:59:47;;;;;;;1.98;0.77;;;;;;;19.07;50.56;102272.25;5023971;28;20478;-58
2022/09/20 08:02:13;;;;;;;2.55;0.98;;;;;;;19.07;50.28;102267.69;5042113;28;20597;-58
2022/09/20 08:04:39;;;;;;;2.05;0.88;;;;;;;19.01;50.37;102257.47;5040752;28;20033;-59
2022/09/20 08:07:04;;;;;;;1.75;0.88;;;;;;;19.06;50.73;102271.41;5056477;28;20031;-59
2022/09/20 08:09:29;;;;;;;2.05;0.70;;;;;;;19.08;50.50;102273.97;5045952;28;20403;-60
2022/09/20 08:11:55;;;;;;;4.60;1.50;;;;;;;19.08;50.59;102274.81;5034160;28;20069;-59
2022/09/20 08:14:21;;;;;;;2.15;1.25;;;;;;;19.06;50.70;102260.63;5045060;28;20025;-59
2022/09/20 08:16:48;;;;;;;1.98;0.82;;;;;;;19.12;50.56;102272.72;5040402;28;20018;-59
2022/09/20 08:19:16;;;;;;;1.27;0.80;;;;;;;19.14;50.64;102279.66;5036582;28;20022;-59
2022/09/20 08:21:41;;;;;;;2.20;0.88;;;;;;;19.14;50.55;102276.09;5038957;28;20026;-57
2022/09/20 08:24:06;;;;;;;2.53;0.82;;;;;;;19.18;50.53;102291.03;5042289;28;20040;-59
2022/09/20 08:26:33;;;;;;;2.88;0.70;;;;;;;19.18;50.33;102288.31;5043254;28;20032;-58
2022/09/20 08:29:00;;;;;;;1.38;0.80;;;;;;;19.23;50.13;102283.38;5040104;28;20037;-58
2022/09/20 08:31:30;;;;;;;3.28;0.85;;;;;;;19.28;50.48;102294.59;5035058;28;20510;-59
2022/09/20 08:33:55;;;;;;;1.73;0.70;;;;;;;19.33;50.11;102291.50;5040187;28;20140;-58
2022/09/20 08:36:23;;;;;;;1.63;0.75;;;;;;;19.38;49.92;102292.78;5035160;28;20059;-59
2022/09/20 08:38:49;;;;;;;1.48;0.88;;;;;;;19.42;50.06;102298.78;5039794;28;20041;-59
2022/09/20 08:41:37;;;;;;;2.80;0.98;;;;;;;19.46;50.16;102292.97;5037697;28;20049;-59
2022/09/20 08:44:31;;;;;;;1.00;0.75;;;;;;;19.51;49.99;102297.09;5050407;28;20040;-59
2022/09/20 08:47:18;;;;;;;2.33;0.77;;;;;;;19.52;50.02;102291.53;5012088;28;20037;-59
2022/09/20 08:49:44;;;;;;;1.27;0.82;;;;;;;19.55;49.70;102291.25;5024057;28;20382;-59
2022/09/20 08:52:18;;;;;;;1.02;0.80;;;;;;;19.61;49.96;102293.44;5040874;28;20029;-58
2022/09/20 08:54:43;;;;;;;1.48;0.70;;;;;;;19.68;49.49;102291.03;5024982;28;20033;-59
2022/09/20 08:57:13;;;;;;;1.30;0.70;;;;;;;19.70;49.46;102295.28;5046511;28;20029;-59
2022/09/20 08:59:39;;;;;;;1.00;0.60;;;;;;;19.75;49.23;102297.56;5034098;28;20038;-60
2022/09/20 09:02:13;;;;;;;1.88;0.77;;;;;;;19.78;49.66;102293.72;5057832;28;20071;-59
2022/09/20 09:04:38;;;;;;;1.48;1.13;;;;;;;19.83;49.49;102294.16;5054967;28;20025;-59
2022/09/20 09:07:03;;;;;;;1.38;0.60;;;;;;;19.84;49.03;102291.34;5057281;28;20025;-59
2022/09/20 09:09:29;;;;;;;1.80;0.60;;;;;;;19.78;49.11;102273.00;5019347;28;20034;-59
2022/09/20 09:11:57;;;;;;;2.33;0.80;;;;;;;19.93;49.10;102295.03;5033717;28;20017;-59
2022/09/20 09:14:50;;;;;;;1.58;0.60;;;;;;;19.97;48.89;102297.31;5043517;28;20084;-59
2022/09/20 09:17:23;;;;;;;1.77;0.70;;;;;;;20.04;48.63;102296.72;5030442;28;20537;-58
2022/09/20 09:19:51;;;;;;;1.92;0.70;;;;;;;20.07;48.55;102294.59;5035917;28;20032;-58
2022/09/20 09:22:19;;;;;;;1.33;0.60;;;;;;;19.86;48.40;102261.50;5038931;28;20132;-58
2022/09/20 09:24:45;;;;;;;1.43;0.53;;;;;;;20.13;48.38;102306.66;5044394;28;20021;-61
2022/09/20 09:27:15;;;;;;;1.27;0.75;;;;;;;20.14;48.44;102301.13;5043714;28;20045;-60
2022/09/20 09:29:58;;;;;;;1.30;0.70;;;;;;;20.14;48.65;102303.00;5043998;28;20496;-60
2022/09/20 09:32:31;;;;;;;1.30;0.70;;;;;;;20.14;48.42;102301.13;5033857;28;20021;-60
2022/09/20 09:35:21;;;;;;;1.25;0.75;;;;;;;20.14;48.57;102305.69;5042826;28;20059;-60
2022/09/20 09:37:54;;;;;;;3.28;0.93;;;;;;;20.16;48.28;102303.69;5035148;28;20649;-60
2022/09/20 09:40:20;;;;;;;1.73;0.60;;;;;;;20.18;48.25;102302.56;5028186;28;20060;-59
2022/09/20 09:42:54;;;;;;;2.70;0.60;;;;;;;20.22;48.50;102305.84;5025284;28;20030;-59
2022/09/20 09:45:37;;;;;;;2.25;1.05;;;;;;;20.25;48.47;102307.38;5056550;28;20054;-57
2022/09/20 09:48:17;;;;;;;0.82;0.60;;;;;;;20.26;47.90;102303.66;5043481;28;20108;-59
2022/09/20 09:50:42;;;;;;;1.60;0.60;;;;;;;20.28;48.16;102307.94;5038186;28;20462;-60
2022/09/20 09:53:10;;;;;;;2.45;0.70;;;;;;;20.30;48.32;102310.50;5043599;28;20674;-60
2022/09/20 09:55:51;;;;;;;2.60;0.82;;;;;;;20.32;48.24;102312.06;5025844;28;20017;-60
2022/09/20 09:58:26;;;;;;;0.70;0.47;;;;;;;20.30;48.00;102299.69;5050505;28;20104;-60
2022/09/20 10:00:52;;;;;;;1.15;0.68;;;;;;;20.27;48.27;102311.66;5040702;28;20088;-61
2022/09/20 10:03:23;;;;;;;1.23;0.63;;;;;;;20.23;48.16;102310.22;5043468;28;20429;-60
2022/09/20 10:06:01;;;;;;;1.58;0.73;;;;;;;20.17;48.20;102319.72;5034545;28;20044;-59
2022/09/20 10:08:44;;;;;;;2.35;0.77;;;;;;;20.13;48.30;102312.91;5037630;28;20017;-60
2022/09/20 10:11:29;;;;;;;2.30;0.70;;;;;;;20.09;48.50;102310.66;5037415;28;21275;-60
2022/09/20 10:14:16;;;;;;;1.88;0.82;;;;;;;20.06;48.66;102314.50;5034113;28;20097;-60
2022/09/20 10:16:47;;;;;;;1.50;0.60;;;;;;;20.04;48.70;102307.53;5039359;28;20033;-61
2022/09/20 10:19:46;;;;;;;2.45;0.80;;;;;;;20.01;48.73;102303.28;5035574;28;20390;-59
2022/09/20 10:22:22;;;;;;;1.25;0.68;;;;;;;20.00;49.20;102296.16;5025267;28;20048;-58
2022/09/20 10:25:15;;;;;;;2.20;0.68;;;;;;;20.02;48.94;102286.06;5033914;28;20045;-59
2022/09/20 10:27:48;;;;;;;1.58;0.73;;;;;;;20.06;49.09;102287.50;5032143;28;20014;-62
2022/09/20 10:30:18;;;;;;;1.33;0.70;;;;;;;20.08;48.89;102288.19;5038558;28;20200;-59
2022/09/20 10:33:14;;;;;;;1.00;0.55;;;;;;;20.09;48.92;102289.03;5025407;28;20095;-59
2022/09/20 10:36:04;;;;;;;1.95;0.50;;;;;;;20.08;49.46;102287.34;5029160;28;20038;-58
2022/09/20 10:38:34;;;;;;;1.80;0.80;;;;;;;20.07;49.33;102291.06;5021356;28;20021;-58
2022/09/20 10:43:58;;;;;;;1.38;0.57;;;;;;;19.96;49.33;102298.31;5042827;28;20044;-59
2022/09/20 10:47:05;;;;;;;2.72;1.52;;;;;;;19.90;49.57;102298.84;5044081;28;20029;-59
2022/09/20 10:49:35;;;;;;;1.70;0.68;;;;;;;19.84;49.99;102302.13;5041074;28;20057;-59
2022/09/20 10:52:11;;;;;;;1.48;0.60;;;;;;;19.77;50.03;102300.13;5041898;28;20045;-59
2022/09/20 10:54:46;;;;;;;2.92;0.60;;;;;;;19.74;50.12;102298.56;5040605;28;20029;-59
2022/09/20 10:57:30;;;;;;;1.67;0.70;;;;;;;19.70;50.21;102294.44;5030679;28;20029;-62
2022/09/20 11:00:17;;;;;;;4.88;0.80;;;;;;;19.67;50.12;102292.88;5030021;28;20029;-63
2022/09/20 11:03:38;;;;;;;1.60;0.80;;;;;;;19.66;50.24;102299.25;5029353;28;20980;-64
2022/09/20 11:06:38;;;;;;;1.95;0.80;;;;;;;19.67;50.58;102300.97;4960493;28;20035;-62
2022/09/20 11:09:08;;;;;;;2.88;0.80;;;;;;;19.70;50.26;102300.69;4982665;28;20034;-63
2022/09/20 11:11:39;;;;;;;5.05;0.85;;;;;;;19.75;50.14;102300.25;4981246;28;20067;-62
2022/09/20 11:14:33;;;;;;;1.85;0.93;;;;;;;19.81;50.30;102298.88;4981288;28;20054;-61
2022/09/20 11:17:09;;;;;;;3.53;1.17;;;;;;;19.90;49.79;102300.72;4974628;28;20050;-62
2022/09/20 11:19:52;;;;;;;2.15;0.90;;;;;;;19.69;49.43;102260.34;4965131;28;20031;-63
2022/09/20 11:22:20;;;;;;;2.97;0.90;;;;;;;19.93;49.95;102300.44;4981106;28;20031;-61
2022/09/20 11:24:49;;;;;;;3.22;1.15;;;;;;;19.91;49.76;102294.31;4980775;28;20061;-64
2022/09/20 11:27:17;;;;;;;;;;;;;;;19.91;49.68;102307.81;4980895;28;20023;-62
2022/09/20 11:30:02;;;;;;;2.88;1.33;;;;;;;19.88;49.89;102311.66;4980929;28;19918;-63
2022/09/20 11:32:35;;;;;;;3.22;1.10;;;;;;;19.85;49.94;102317.34;4980899;28;20058;-61
2022/09/20 11:35:02;;;;;;;3.72;1.30;;;;;;;19.83;50.09;102311.19;4965190;28;20030;-61
2022/09/20 11:37:37;;;;;;;2.60;0.88;;;;;;;19.79;49.94;102312.47;5021788;28;20029;-60
2022/09/20 11:40:24;;;;;;;2.78;1.13;;;;;;;19.77;50.52;102327.97;5021613;28;20050;-60
2022/09/20 11:42:51;;;;;;;2.20;0.90;;;;;;;19.77;50.24;102325.28;5042497;28;20035;-60
2022/09/20 11:45:17;;;;;;;4.90;1.00;;;;;;;19.77;50.13;102322.56;5046268;28;20037;-59
2022/09/20 11:47:53;;;;;;;2.60;1.00;;;;;;;19.71;50.62;102323.16;5037161;28;20026;-62
2022/09/20 11:50:41;;;;;;;4.65;1.33;;;;;;;19.73;50.45;102329.25;5041094;28;20028;-60
2022/09/20 11:53:42;;;;;;;5.20;1.40;;;;;;;19.78;50.36;102339.63;5028902;28;20025;-60
2022/09/20 11:56:17;;;;;;;2.72;0.90;;;;;;;19.62;50.32;102318.56;4948489;29;20023;-61
2022/09/20 11:58:45;;;;;;;3.10;1.10;;;;;;;19.77;50.28;102344.16;4957488;29;20724;-60
2022/09/20 12:01:11;;;;;;;2.20;0.98;;;;;;;19.79;50.39;102344.88;4964735;28;20035;-62
2022/09/20 12:03:38;;;;;;;4.13;1.40;;;;;;;19.81;50.47;102348.28;4935583;29;20040;-62
2022/09/20 12:06:18;;;;;;;4.05;1.48;;;;;;;19.82;50.55;102346.44;4958101;29;20048;-60
2022/09/20 12:08:48;;;;;;;3.67;1.05;;;;;;;19.82;50.46;102344.59;4948524;29;20072;-61
2022/09/20 12:11:15;;;;;;;2.90;0.98;;;;;;;19.83;50.67;102351.69;4964101;29;20038;-58
2022/09/20 12:13:42;;;;;;;3.13;1.05;;;;;;;19.81;50.60;102342.03;4953954;29;20028;-59
2022/09/20 12:16:17;;;;;;;2.88;0.88;;;;;;;19.82;50.29;102331.09;4965575;28;20062;-60
2022/09/20 12:19:04;;;;;;;5.50;1.70;;;;;;;19.81;50.22;102337.50;4953432;29;20740;-60